sensor_id;sensor_type;location;lat;lon;timestamp;P1;durP1;ratioP1;P2;durP2;ratioP2
24897;SDS011;12957;49.434;8.684;2023-04-03T00:01:22;1.97;;;1.87;;
24897;SDS011;12957;49.434;8.684;2023-04-03T00:03:48;2.10;;;1.90;;
24897;SDS011;12957;49.434;8.684;2023-04-03T00:06:13;2.20;;;2.10;;
24897;SDS011;12957;49.434;8.684;2023-04-03T00:08:39;4.83;;;2.13;;
24897;SDS011;12957;49.434;8.684;2023-04-03T00:11:05;4.33;;;2.20;;
24897;SDS011;12957;49.434;8.684;2023-04-03T00:13:31;3.47;;;2.23;;
24897;SDS011;12957;49.434;8.684;2023-04-03T00:15:57;3.60;;;2.10;;
24897;SDS011;12957;49.434;8.684;2023-04-03T00:18:23;2.83;;;2.23;;
24897;SDS011;12957;49.434;8.684;2023-04-03T00:20:48;2.83;;;2.00;;
24897;SDS011;12957;49.434;8.684;2023-04-03T00:23:14;3.40;;;2.20;;
24897;SDS011;12957;49.434;8.684;2023-04-03T00:25:40;3.17;;;2.33;;
24897;SDS011;12957;49.434;8.684;2023-04-03T00:28:05;6.87;;;2.03;;
24897;SDS011;12957;49.434;8.684;2023-04-03T00:30:31;3.37;;;2.07;;
24897;SDS011;12957;49.434;8.684;2023-04-03T00:32:57;7.80;;;2.77;;
24897;SDS011;12957;49.434;8.684;2023-04-03T00:35:23;4.80;;;2.10;;
24897;SDS011;12957;49.434;8.684;2023-04-03T00:37:50;2.00;;;1.80;;
24897;SDS011;12957;49.434;8.684;2023-04-03T00:40:16;2.00;;;1.90;;
24897;SDS011;12957;49.434;8.684;2023-04-03T00:42:42;1.97;;;1.80;;
24897;SDS011;12957;49.434;8.684;2023-04-03T00:47:43;6.13;;;1.90;;
24897;SDS011;12957;49.434;8.684;2023-04-03T00:50:09;5.23;;;2.30;;
24897;SDS011;12957;49.434;8.684;2023-04-03T00:52:35;2.63;;;2.03;;
24897;SDS011;12957;49.434;8.684;2023-04-03T00:55:03;3.03;;;2.17;;
24897;SDS011;12957;49.434;8.684;2023-04-03T00:57:31;2.23;;;1.93;;
24897;SDS011;12957;49.434;8.684;2023-04-03T00:59:57;3.80;;;1.77;;
24897;SDS011;12957;49.434;8.684;2023-04-03T01:02:26;3.80;;;2.37;;
24897;SDS011;12957;49.434;8.684;2023-04-03T01:04:52;2.87;;;1.80;;
24897;SDS011;12957;49.434;8.684;2023-04-03T01:07:19;2.80;;;1.87;;
24897;SDS011;12957;49.434;8.684;2023-04-03T01:09:47;2.10;;;1.90;;
24897;SDS011;12957;49.434;8.684;2023-04-03T01:14:45;2.73;;;1.77;;
24897;SDS011;12957;49.434;8.684;2023-04-03T01:25:26;5.70;;;1.87;;
24897;SDS011;12957;49.434;8.684;2023-04-03T01:27:52;4.23;;;1.93;;
24897;SDS011;12957;49.434;8.684;2023-04-03T01:30:18;2.27;;;1.60;;
24897;SDS011;12957;49.434;8.684;2023-04-03T01:32:45;5.53;;;1.60;;
24897;SDS011;12957;49.434;8.684;2023-04-03T01:35:11;7.30;;;1.70;;
24897;SDS011;12957;49.434;8.684;2023-04-03T01:37:37;4.23;;;1.60;;
24897;SDS011;12957;49.434;8.684;2023-04-03T01:40:02;3.37;;;1.70;;
24897;SDS011;12957;49.434;8.684;2023-04-03T01:42:28;3.10;;;1.70;;
24897;SDS011;12957;49.434;8.684;2023-04-03T01:44:54;2.70;;;1.90;;
24897;SDS011;12957;49.434;8.684;2023-04-03T01:47:20;1.70;;;1.60;;
24897;SDS011;12957;49.434;8.684;2023-04-03T01:49:46;2.77;;;1.73;;
24897;SDS011;12957;49.434;8.684;2023-04-03T01:52:12;3.50;;;1.70;;
24897;SDS011;12957;49.434;8.684;2023-04-03T01:54:37;2.80;;;1.50;;
24897;SDS011;12957;49.434;8.684;2023-04-03T01:57:03;3.13;;;1.50;;
24897;SDS011;12957;49.434;8.684;2023-04-03T01:59:28;4.73;;;2.03;;
24897;SDS011;12957;49.434;8.684;2023-04-03T02:01:54;4.07;;;1.90;;
24897;SDS011;12957;49.434;8.684;2023-04-03T02:04:19;3.57;;;1.83;;
24897;SDS011;12957;49.434;8.684;2023-04-03T02:06:45;1.80;;;1.60;;
24897;SDS011;12957;49.434;8.684;2023-04-03T02:09:10;1.93;;;1.73;;
24897;SDS011;12957;49.434;8.684;2023-04-03T02:11:36;4.97;;;2.17;;
24897;SDS011;12957;49.434;8.684;2023-04-03T02:14:01;9.57;;;1.80;;
24897;SDS011;12957;49.434;8.684;2023-04-03T02:16:27;2.97;;;1.80;;
24897;SDS011;12957;49.434;8.684;2023-04-03T02:18:53;2.03;;;1.70;;
24897;SDS011;12957;49.434;8.684;2023-04-03T02:21:19;4.87;;;1.70;;
24897;SDS011;12957;49.434;8.684;2023-04-03T02:23:44;5.90;;;1.97;;
24897;SDS011;12957;49.434;8.684;2023-04-03T02:26:11;1.93;;;1.80;;
24897;SDS011;12957;49.434;8.684;2023-04-03T02:28:37;2.53;;;1.90;;
24897;SDS011;12957;49.434;8.684;2023-04-03T02:31:03;2.00;;;1.70;;
24897;SDS011;12957;49.434;8.684;2023-04-03T02:33:30;2.03;;;1.80;;
24897;SDS011;12957;49.434;8.684;2023-04-03T02:35:56;2.33;;;1.70;;
24897;SDS011;12957;49.434;8.684;2023-04-03T02:38:22;2.43;;;1.80;;
24897;SDS011;12957;49.434;8.684;2023-04-03T02:40:47;1.93;;;1.80;;
24897;SDS011;12957;49.434;8.684;2023-04-03T02:43:13;3.37;;;1.90;;
24897;SDS011;12957;49.434;8.684;2023-04-03T02:45:39;2.47;;;1.80;;
24897;SDS011;12957;49.434;8.684;2023-04-03T02:48:04;2.30;;;1.57;;
24897;SDS011;12957;49.434;8.684;2023-04-03T02:50:30;4.20;;;1.80;;
24897;SDS011;12957;49.434;8.684;2023-04-03T02:52:55;3.60;;;1.73;;
24897;SDS011;12957;49.434;8.684;2023-04-03T02:55:21;5.77;;;2.17;;
24897;SDS011;12957;49.434;8.684;2023-04-03T02:57:47;9.83;;;1.60;;
24897;SDS011;12957;49.434;8.684;2023-04-03T03:00:12;2.27;;;1.90;;
24897;SDS011;12957;49.434;8.684;2023-04-03T03:02:39;2.57;;;1.83;;
24897;SDS011;12957;49.434;8.684;2023-04-03T03:05:05;2.10;;;1.90;;
24897;SDS011;12957;49.434;8.684;2023-04-03T03:07:31;2.97;;;1.70;;
24897;SDS011;12957;49.434;8.684;2023-04-03T03:09:57;3.40;;;1.90;;
24897;SDS011;12957;49.434;8.684;2023-04-03T03:12:22;5.83;;;1.90;;
24897;SDS011;12957;49.434;8.684;2023-04-03T03:14:49;1.53;;;1.43;;
24897;SDS011;12957;49.434;8.684;2023-04-03T03:17:14;6.43;;;1.80;;
24897;SDS011;12957;49.434;8.684;2023-04-03T03:19:40;3.80;;;1.70;;
24897;SDS011;12957;49.434;8.684;2023-04-03T03:22:05;1.93;;;1.83;;
24897;SDS011;12957;49.434;8.684;2023-04-03T03:24:31;2.90;;;1.90;;
24897;SDS011;12957;49.434;8.684;2023-04-03T03:26:57;5.70;;;2.00;;
24897;SDS011;12957;49.434;8.684;2023-04-03T03:29:23;1.83;;;1.73;;
24897;SDS011;12957;49.434;8.684;2023-04-03T03:31:48;1.97;;;1.73;;
24897;SDS011;12957;49.434;8.684;2023-04-03T03:34:14;2.20;;;1.73;;
24897;SDS011;12957;49.434;8.684;2023-04-03T03:36:40;2.17;;;1.67;;
24897;SDS011;12957;49.434;8.684;2023-04-03T03:39:06;2.03;;;1.70;;
24897;SDS011;12957;49.434;8.684;2023-04-03T03:41:31;2.67;;;1.80;;
24897;SDS011;12957;49.434;8.684;2023-04-03T03:43:57;2.23;;;2.00;;
24897;SDS011;12957;49.434;8.684;2023-04-03T03:46:23;3.73;;;1.93;;
24897;SDS011;12957;49.434;8.684;2023-04-03T03:48:48;3.07;;;1.90;;
24897;SDS011;12957;49.434;8.684;2023-04-03T03:51:14;4.57;;;1.70;;
24897;SDS011;12957;49.434;8.684;2023-04-03T03:53:40;2.10;;;1.83;;
24897;SDS011;12957;49.434;8.684;2023-04-03T03:56:05;2.10;;;2.00;;
24897;SDS011;12957;49.434;8.684;2023-04-03T03:58:31;2.80;;;1.97;;
24897;SDS011;12957;49.434;8.684;2023-04-03T04:01:00;3.83;;;1.70;;
24897;SDS011;12957;49.434;8.684;2023-04-03T04:03:26;5.13;;;1.90;;
24897;SDS011;12957;49.434;8.684;2023-04-03T04:05:52;4.00;;;1.80;;
24897;SDS011;12957;49.434;8.684;2023-04-03T04:08:17;3.70;;;1.80;;
24897;SDS011;12957;49.434;8.684;2023-04-03T04:10:43;2.60;;;1.83;;
24897;SDS011;12957;49.434;8.684;2023-04-03T04:13:08;2.43;;;1.80;;
24897;SDS011;12957;49.434;8.684;2023-04-03T04:15:34;2.53;;;1.80;;
24897;SDS011;12957;49.434;8.684;2023-04-03T04:17:59;5.10;;;2.30;;
24897;SDS011;12957;49.434;8.684;2023-04-03T04:20:25;2.40;;;1.90;;
24897;SDS011;12957;49.434;8.684;2023-04-03T04:22:50;1.83;;;1.73;;
24897;SDS011;12957;49.434;8.684;2023-04-03T04:25:16;4.27;;;2.20;;
24897;SDS011;12957;49.434;8.684;2023-04-03T04:27:41;3.47;;;1.97;;
24897;SDS011;12957;49.434;8.684;2023-04-03T04:30:07;2.93;;;1.80;;
24897;SDS011;12957;49.434;8.684;2023-04-03T04:32:33;5.03;;;2.30;;
24897;SDS011;12957;49.434;8.684;2023-04-03T04:34:59;2.07;;;1.87;;
24897;SDS011;12957;49.434;8.684;2023-04-03T04:37:24;5.63;;;1.80;;
24897;SDS011;12957;49.434;8.684;2023-04-03T04:39:50;3.90;;;1.97;;
24897;SDS011;12957;49.434;8.684;2023-04-03T04:42:15;3.20;;;2.00;;
24897;SDS011;12957;49.434;8.684;2023-04-03T04:44:41;2.53;;;1.73;;
24897;SDS011;12957;49.434;8.684;2023-04-03T04:47:07;5.20;;;1.83;;
24897;SDS011;12957;49.434;8.684;2023-04-03T04:49:32;3.40;;;2.07;;
24897;SDS011;12957;49.434;8.684;2023-04-03T04:51:58;4.97;;;2.10;;
24897;SDS011;12957;49.434;8.684;2023-04-03T04:54:23;2.17;;;2.00;;
24897;SDS011;12957;49.434;8.684;2023-04-03T04:56:49;5.60;;;2.00;;
24897;SDS011;12957;49.434;8.684;2023-04-03T04:59:14;4.90;;;2.20;;
24897;SDS011;12957;49.434;8.684;2023-04-03T05:01:40;2.30;;;2.10;;
24897;SDS011;12957;49.434;8.684;2023-04-03T05:04:06;3.87;;;2.17;;
24897;SDS011;12957;49.434;8.684;2023-04-03T05:06:31;6.07;;;2.00;;
24897;SDS011;12957;49.434;8.684;2023-04-03T05:08:57;3.93;;;2.10;;
24897;SDS011;12957;49.434;8.684;2023-04-03T05:11:23;2.97;;;2.03;;
24897;SDS011;12957;49.434;8.684;2023-04-03T05:13:49;3.30;;;2.27;;
24897;SDS011;12957;49.434;8.684;2023-04-03T05:16:14;2.77;;;2.13;;
24897;SDS011;12957;49.434;8.684;2023-04-03T05:18:40;8.43;;;2.37;;
24897;SDS011;12957;49.434;8.684;2023-04-03T05:21:05;4.03;;;2.20;;
24897;SDS011;12957;49.434;8.684;2023-04-03T05:23:31;4.27;;;2.10;;
24897;SDS011;12957;49.434;8.684;2023-04-03T05:25:57;4.60;;;2.60;;
24897;SDS011;12957;49.434;8.684;2023-04-03T05:28:23;4.53;;;2.13;;
24897;SDS011;12957;49.434;8.684;2023-04-03T05:30:56;2.40;;;2.00;;
24897;SDS011;12957;49.434;8.684;2023-04-03T05:33:22;2.17;;;1.97;;
24897;SDS011;12957;49.434;8.684;2023-04-03T05:35:48;3.50;;;2.27;;
24897;SDS011;12957;49.434;8.684;2023-04-03T05:38:13;2.57;;;2.07;;
24897;SDS011;12957;49.434;8.684;2023-04-03T05:40:39;3.57;;;2.20;;
24897;SDS011;12957;49.434;8.684;2023-04-03T05:43:04;5.20;;;2.40;;
24897;SDS011;12957;49.434;8.684;2023-04-03T05:45:30;2.63;;;2.00;;
24897;SDS011;12957;49.434;8.684;2023-04-03T05:47:55;4.23;;;2.03;;
24897;SDS011;12957;49.434;8.684;2023-04-03T05:50:21;3.87;;;2.37;;
24897;SDS011;12957;49.434;8.684;2023-04-03T05:52:47;4.63;;;2.33;;
24897;SDS011;12957;49.434;8.684;2023-04-03T05:55:13;3.20;;;1.97;;
24897;SDS011;12957;49.434;8.684;2023-04-03T05:57:39;8.10;;;2.60;;
24897;SDS011;12957;49.434;8.684;2023-04-03T06:00:05;5.97;;;2.60;;
24897;SDS011;12957;49.434;8.684;2023-04-03T06:02:32;4.50;;;2.23;;
24897;SDS011;12957;49.434;8.684;2023-04-03T06:04:57;7.17;;;2.50;;
24897;SDS011;12957;49.434;8.684;2023-04-03T06:07:24;2.43;;;1.90;;
24897;SDS011;12957;49.434;8.684;2023-04-03T06:09:53;6.03;;;1.90;;
24897;SDS011;12957;49.434;8.684;2023-04-03T06:12:20;7.37;;;2.90;;
24897;SDS011;12957;49.434;8.684;2023-04-03T06:14:46;6.77;;;2.80;;
24897;SDS011;12957;49.434;8.684;2023-04-03T06:17:13;4.20;;;2.37;;
24897;SDS011;12957;49.434;8.684;2023-04-03T06:19:39;4.60;;;2.20;;
24897;SDS011;12957;49.434;8.684;2023-04-03T06:22:04;2.10;;;1.90;;
24897;SDS011;12957;49.434;8.684;2023-04-03T06:24:30;4.70;;;2.00;;
24897;SDS011;12957;49.434;8.684;2023-04-03T06:26:56;8.48;;;2.50;;
24897;SDS011;12957;49.434;8.684;2023-04-03T06:29:21;2.25;;;1.75;;
24897;SDS011;12957;49.434;8.684;2023-04-03T06:31:47;2.00;;;1.90;;
24897;SDS011;12957;49.434;8.684;2023-04-03T06:34:13;2.97;;;2.05;;
24897;SDS011;12957;49.434;8.684;2023-04-03T06:36:40;4.32;;;2.00;;
24897;SDS011;12957;49.434;8.684;2023-04-03T06:39:06;2.08;;;1.80;;
24897;SDS011;12957;49.434;8.684;2023-04-03T06:41:31;2.95;;;2.17;;
24897;SDS011;12957;49.434;8.684;2023-04-03T06:43:57;3.80;;;2.25;;
24897;SDS011;12957;49.434;8.684;2023-04-03T06:46:24;4.13;;;1.85;;
24897;SDS011;12957;49.434;8.684;2023-04-03T06:48:50;3.15;;;1.90;;
24897;SDS011;12957;49.434;8.684;2023-04-03T06:51:23;3.78;;;2.00;;
24897;SDS011;12957;49.434;8.684;2023-04-03T06:53:50;3.35;;;2.13;;
24897;SDS011;12957;49.434;8.684;2023-04-03T06:56:16;5.78;;;2.38;;
24897;SDS011;12957;49.434;8.684;2023-04-03T06:58:42;2.05;;;1.77;;
24897;SDS011;12957;49.434;8.684;2023-04-03T07:01:09;2.20;;;1.67;;
24897;SDS011;12957;49.434;8.684;2023-04-03T07:03:35;9.07;;;1.90;;
24897;SDS011;12957;49.434;8.684;2023-04-03T07:06:01;4.28;;;1.88;;
24897;SDS011;12957;49.434;8.684;2023-04-03T07:08:28;6.10;;;1.90;;
24897;SDS011;12957;49.434;8.684;2023-04-03T07:10:53;8.70;;;2.08;;
24897;SDS011;12957;49.434;8.684;2023-04-03T07:13:19;2.90;;;2.00;;
24897;SDS011;12957;49.434;8.684;2023-04-03T07:15:45;2.17;;;1.98;;
24897;SDS011;12957;49.434;8.684;2023-04-03T07:18:10;5.40;;;1.80;;
24897;SDS011;12957;49.434;8.684;2023-04-03T07:20:36;4.88;;;2.28;;
24897;SDS011;12957;49.434;8.684;2023-04-03T07:23:01;3.50;;;2.00;;
24897;SDS011;12957;49.434;8.684;2023-04-03T07:25:27;4.47;;;1.80;;
24897;SDS011;12957;49.434;8.684;2023-04-03T07:27:53;4.53;;;1.88;;
24897;SDS011;12957;49.434;8.684;2023-04-03T07:30:22;4.28;;;2.00;;
24897;SDS011;12957;49.434;8.684;2023-04-03T07:32:47;4.00;;;1.90;;
24897;SDS011;12957;49.434;8.684;2023-04-03T07:35:12;6.18;;;1.85;;
24897;SDS011;12957;49.434;8.684;2023-04-03T07:37:38;2.20;;;1.40;;
24897;SDS011;12957;49.434;8.684;2023-04-03T07:40:04;3.17;;;2.00;;
24897;SDS011;12957;49.434;8.684;2023-04-03T07:42:30;2.30;;;1.80;;
24897;SDS011;12957;49.434;8.684;2023-04-03T07:44:56;2.53;;;1.52;;
24897;SDS011;12957;49.434;8.684;2023-04-03T07:47:22;2.10;;;1.90;;
24897;SDS011;12957;49.434;8.684;2023-04-03T07:49:47;3.00;;;1.75;;
24897;SDS011;12957;49.434;8.684;2023-04-03T07:52:13;5.80;;;1.73;;
24897;SDS011;12957;49.434;8.684;2023-04-03T07:54:40;2.92;;;1.70;;
24897;SDS011;12957;49.434;8.684;2023-04-03T07:57:06;2.40;;;1.70;;
24897;SDS011;12957;49.434;8.684;2023-04-03T07:59:32;4.97;;;1.55;;
24897;SDS011;12957;49.434;8.684;2023-04-03T08:01:57;2.72;;;1.30;;
24897;SDS011;12957;49.434;8.684;2023-04-03T08:04:23;3.78;;;1.55;;
24897;SDS011;12957;49.434;8.684;2023-04-03T08:06:48;3.83;;;1.50;;
24897;SDS011;12957;49.434;8.684;2023-04-03T08:09:14;2.35;;;1.40;;
24897;SDS011;12957;49.434;8.684;2023-04-03T08:11:40;1.48;;;1.35;;
24897;SDS011;12957;49.434;8.684;2023-04-03T08:14:05;2.17;;;1.50;;
24897;SDS011;12957;49.434;8.684;2023-04-03T08:16:31;2.97;;;1.40;;
24897;SDS011;12957;49.434;8.684;2023-04-03T08:18:56;3.80;;;1.60;;
24897;SDS011;12957;49.434;8.684;2023-04-03T08:21:22;5.45;;;1.67;;
24897;SDS011;12957;49.434;8.684;2023-04-03T08:23:49;6.07;;;1.50;;
24897;SDS011;12957;49.434;8.684;2023-04-03T08:26:16;1.60;;;1.50;;
24897;SDS011;12957;49.434;8.684;2023-04-03T08:28:43;4.07;;;1.50;;
24897;SDS011;12957;49.434;8.684;2023-04-03T08:31:11;2.45;;;1.30;;
24897;SDS011;12957;49.434;8.684;2023-04-03T08:33:38;3.72;;;1.40;;
24897;SDS011;12957;49.434;8.684;2023-04-03T08:36:05;3.92;;;1.58;;
24897;SDS011;12957;49.434;8.684;2023-04-03T08:38:31;2.13;;;1.52;;
24897;SDS011;12957;49.434;8.684;2023-04-03T08:41:04;2.53;;;1.65;;
24897;SDS011;12957;49.434;8.684;2023-04-03T08:43:45;5.07;;;1.42;;
24897;SDS011;12957;49.434;8.684;2023-04-03T08:46:55;4.03;;;1.30;;
24897;SDS011;12957;49.434;8.684;2023-04-03T08:49:26;1.63;;;1.20;;
24897;SDS011;12957;49.434;8.684;2023-04-03T08:51:53;2.15;;;1.40;;
24897;SDS011;12957;49.434;8.684;2023-04-03T08:54:30;4.03;;;1.40;;
24897;SDS011;12957;49.434;8.684;2023-04-03T08:57:01;5.25;;;1.25;;
24897;SDS011;12957;49.434;8.684;2023-04-03T08:59:29;3.05;;;1.35;;
24897;SDS011;12957;49.434;8.684;2023-04-03T09:01:57;3.65;;;1.30;;
24897;SDS011;12957;49.434;8.684;2023-04-03T09:04:23;5.60;;;1.38;;
24897;SDS011;12957;49.434;8.684;2023-04-03T09:06:52;2.13;;;1.13;;
24897;SDS011;12957;49.434;8.684;2023-04-03T09:18:35;2.22;;;1.30;;
24897;SDS011;12957;49.434;8.684;2023-04-03T09:26:14;3.30;;;1.48;;
24897;SDS011;12957;49.434;8.684;2023-04-03T09:28:42;3.97;;;1.23;;
24897;SDS011;12957;49.434;8.684;2023-04-03T09:31:20;2.47;;;1.52;;
24897;SDS011;12957;49.434;8.684;2023-04-03T09:33:52;2.38;;;1.30;;
24897;SDS011;12957;49.434;8.684;2023-04-03T09:36:41;4.18;;;1.20;;
24897;SDS011;12957;49.434;8.684;2023-04-03T09:39:15;1.95;;;1.20;;
24897;SDS011;12957;49.434;8.684;2023-04-03T09:41:54;1.02;;;1.02;;
24897;SDS011;12957;49.434;8.684;2023-04-03T09:44:21;2.72;;;1.27;;
24897;SDS011;12957;49.434;8.684;2023-04-03T09:46:48;4.18;;;1.30;;
24897;SDS011;12957;49.434;8.684;2023-04-03T09:49:13;3.72;;;1.40;;
24897;SDS011;12957;49.434;8.684;2023-04-03T09:51:40;2.97;;;1.20;;
24897;SDS011;12957;49.434;8.684;2023-04-03T09:56:57;1.73;;;1.25;;
24897;SDS011;12957;49.434;8.684;2023-04-03T09:59:26;2.60;;;1.42;;
24897;SDS011;12957;49.434;8.684;2023-04-03T10:04:46;1.85;;;1.05;;
24897;SDS011;12957;49.434;8.684;2023-04-03T10:07:25;1.33;;;1.20;;
24897;SDS011;12957;49.434;8.684;2023-04-03T10:10:14;2.20;;;1.35;;
24897;SDS011;12957;49.434;8.684;2023-04-03T10:12:45;2.65;;;1.27;;
24897;SDS011;12957;49.434;8.684;2023-04-03T10:15:14;2.55;;;1.23;;
24897;SDS011;12957;49.434;8.684;2023-04-03T10:17:50;1.83;;;1.10;;
24897;SDS011;12957;49.434;8.684;2023-04-03T10:20:28;0.90;;;0.90;;
24897;SDS011;12957;49.434;8.684;2023-04-03T10:23:05;3.03;;;1.30;;
24897;SDS011;12957;49.434;8.684;2023-04-03T10:28:48;4.00;;;1.25;;
24897;SDS011;12957;49.434;8.684;2023-04-03T10:31:33;2.08;;;1.25;;
24897;SDS011;12957;49.434;8.684;2023-04-03T10:34:20;1.08;;;0.98;;
24897;SDS011;12957;49.434;8.684;2023-04-03T10:42:12;1.13;;;1.00;;
24897;SDS011;12957;49.434;8.684;2023-04-03T10:50:37;1.77;;;1.10;;
24897;SDS011;12957;49.434;8.684;2023-04-03T10:53:19;3.40;;;1.20;;
24897;SDS011;12957;49.434;8.684;2023-04-03T10:58:36;5.15;;;1.65;;
24897;SDS011;12957;49.434;8.684;2023-04-03T11:01:08;1.65;;;1.40;;
24897;SDS011;12957;49.434;8.684;2023-04-03T11:03:43;1.45;;;1.20;;
24897;SDS011;12957;49.434;8.684;2023-04-03T11:06:11;1.13;;;1.02;;
24897;SDS011;12957;49.434;8.684;2023-04-03T11:08:41;1.25;;;1.10;;
24897;SDS011;12957;49.434;8.684;2023-04-03T11:11:19;3.72;;;1.50;;
24897;SDS011;12957;49.434;8.684;2023-04-03T11:16:53;1.73;;;1.30;;
24897;SDS011;12957;49.434;8.684;2023-04-03T11:19:36;2.38;;;1.20;;
24897;SDS011;12957;49.434;8.684;2023-04-03T11:22:08;4.28;;;1.33;;
24897;SDS011;12957;49.434;8.684;2023-04-03T11:24:39;3.17;;;1.35;;
24897;SDS011;12957;49.434;8.684;2023-04-03T11:27:08;1.20;;;1.10;;
24897;SDS011;12957;49.434;8.684;2023-04-03T11:29:41;3.92;;;1.40;;
24897;SDS011;12957;49.434;8.684;2023-04-03T11:35:00;3.20;;;1.40;;
24897;SDS011;12957;49.434;8.684;2023-04-03T11:37:34;4.00;;;1.58;;
24897;SDS011;12957;49.434;8.684;2023-04-03T11:40:05;1.30;;;1.20;;
24897;SDS011;12957;49.434;8.684;2023-04-03T11:42:36;3.00;;;1.52;;
24897;SDS011;12957;49.434;8.684;2023-04-03T11:47:47;3.50;;;1.52;;
24897;SDS011;12957;49.434;8.684;2023-04-03T12:06:41;1.90;;;1.30;;
24897;SDS011;12957;49.434;8.684;2023-04-03T12:32:17;1.60;;;1.42;;
24897;SDS011;12957;49.434;8.684;2023-04-03T12:44:09;2.65;;;1.67;;
24897;SDS011;12957;49.434;8.684;2023-04-03T12:46:43;1.63;;;1.40;;
24897;SDS011;12957;49.434;8.684;2023-04-03T12:51:51;1.55;;;1.38;;
24897;SDS011;12957;49.434;8.684;2023-04-03T12:54:25;2.08;;;1.67;;
24897;SDS011;12957;49.434;8.684;2023-04-03T12:57:08;2.53;;;1.60;;
24897;SDS011;12957;49.434;8.684;2023-04-03T12:59:34;2.17;;;1.63;;
24897;SDS011;12957;49.434;8.684;2023-04-03T13:02:01;4.30;;;1.50;;
24897;SDS011;12957;49.434;8.684;2023-04-03T13:04:28;2.75;;;1.60;;
24897;SDS011;12957;49.434;8.684;2023-04-03T13:06:54;4.47;;;1.70;;
24897;SDS011;12957;49.434;8.684;2023-04-03T13:09:27;3.85;;;1.50;;
24897;SDS011;12957;49.434;8.684;2023-04-03T13:12:01;3.92;;;1.67;;
24897;SDS011;12957;49.434;8.684;2023-04-03T13:14:28;3.55;;;1.70;;
24897;SDS011;12957;49.434;8.684;2023-04-03T13:17:06;2.97;;;1.55;;
24897;SDS011;12957;49.434;8.684;2023-04-03T13:19:37;1.90;;;1.40;;
24897;SDS011;12957;49.434;8.684;2023-04-03T13:22:07;1.73;;;1.55;;
24897;SDS011;12957;49.434;8.684;2023-04-03T13:24:38;2.22;;;1.50;;
24897;SDS011;12957;49.434;8.684;2023-04-03T13:27:04;1.48;;;1.35;;
24897;SDS011;12957;49.434;8.684;2023-04-03T13:29:31;2.28;;;1.65;;
24897;SDS011;12957;49.434;8.684;2023-04-03T13:31:59;3.35;;;1.80;;
24897;SDS011;12957;49.434;8.684;2023-04-03T13:34:26;2.78;;;1.73;;
24897;SDS011;12957;49.434;8.684;2023-04-03T13:37:00;3.85;;;1.58;;
24897;SDS011;12957;49.434;8.684;2023-04-03T13:39:35;2.40;;;1.27;;
24897;SDS011;12957;49.434;8.684;2023-04-03T13:42:14;4.30;;;1.67;;
24897;SDS011;12957;49.434;8.684;2023-04-03T13:44:47;1.55;;;1.48;;
24897;SDS011;12957;49.434;8.684;2023-04-03T13:47:18;1.60;;;1.50;;
24897;SDS011;12957;49.434;8.684;2023-04-03T13:49:57;2.53;;;1.67;;
24897;SDS011;12957;49.434;8.684;2023-04-03T13:54:58;4.88;;;1.85;;
24897;SDS011;12957;49.434;8.684;2023-04-03T13:57:26;2.60;;;1.70;;
24897;SDS011;12957;49.434;8.684;2023-04-03T13:59:52;2.63;;;1.60;;
24897;SDS011;12957;49.434;8.684;2023-04-03T14:02:19;1.67;;;1.35;;
24897;SDS011;12957;49.434;8.684;2023-04-03T14:05:03;2.85;;;1.33;;
24897;SDS011;12957;49.434;8.684;2023-04-03T14:07:30;1.42;;;1.27;;
24897;SDS011;12957;49.434;8.684;2023-04-03T14:09:56;1.40;;;1.30;;
24897;SDS011;12957;49.434;8.684;2023-04-03T14:14:57;1.60;;;1.50;;
24897;SDS011;12957;49.434;8.684;2023-04-03T14:17:24;3.10;;;1.60;;
24897;SDS011;12957;49.434;8.684;2023-04-03T14:19:52;1.70;;;1.60;;
24897;SDS011;12957;49.434;8.684;2023-04-03T14:22:20;2.22;;;1.50;;
24897;SDS011;12957;49.434;8.684;2023-04-03T14:24:47;3.33;;;1.33;;
24897;SDS011;12957;49.434;8.684;2023-04-03T14:27:19;2.47;;;1.40;;
24897;SDS011;12957;49.434;8.684;2023-04-03T14:29:46;1.90;;;1.30;;
24897;SDS011;12957;49.434;8.684;2023-04-03T14:32:12;1.90;;;1.50;;
24897;SDS011;12957;49.434;8.684;2023-04-03T14:34:39;1.52;;;1.30;;
24897;SDS011;12957;49.434;8.684;2023-04-03T14:37:08;2.50;;;1.42;;
24897;SDS011;12957;49.434;8.684;2023-04-03T14:39:38;3.35;;;1.38;;
24897;SDS011;12957;49.434;8.684;2023-04-03T14:42:03;1.48;;;1.38;;
24897;SDS011;12957;49.434;8.684;2023-04-03T14:44:29;2.13;;;1.58;;
24897;SDS011;12957;49.434;8.684;2023-04-03T14:46:54;2.80;;;1.80;;
24897;SDS011;12957;49.434;8.684;2023-04-03T14:49:22;2.72;;;1.70;;
24897;SDS011;12957;49.434;8.684;2023-04-03T14:51:50;1.95;;;1.50;;
24897;SDS011;12957;49.434;8.684;2023-04-03T14:54:17;3.03;;;1.45;;
24897;SDS011;12957;49.434;8.684;2023-04-03T14:56:46;3.53;;;1.63;;
24897;SDS011;12957;49.434;8.684;2023-04-03T14:59:12;2.35;;;1.60;;
24897;SDS011;12957;49.434;8.684;2023-04-03T15:01:38;3.08;;;1.70;;
24897;SDS011;12957;49.434;8.684;2023-04-03T15:04:14;2.53;;;1.50;;
24897;SDS011;12957;49.434;8.684;2023-04-03T15:06:40;1.65;;;1.40;;
24897;SDS011;12957;49.434;8.684;2023-04-03T15:09:09;2.30;;;1.38;;
24897;SDS011;12957;49.434;8.684;2023-04-03T15:11:50;5.18;;;1.40;;
24897;SDS011;12957;49.434;8.684;2023-04-03T15:14:16;1.88;;;1.50;;
24897;SDS011;12957;49.434;8.684;2023-04-03T15:16:41;1.92;;;1.50;;
24897;SDS011;12957;49.434;8.684;2023-04-03T15:19:07;3.15;;;1.60;;
24897;SDS011;12957;49.434;8.684;2023-04-03T15:21:32;3.42;;;1.50;;
24897;SDS011;12957;49.434;8.684;2023-04-03T15:23:58;2.90;;;1.65;;
24897;SDS011;12957;49.434;8.684;2023-04-03T15:26:24;2.53;;;1.45;;
24897;SDS011;12957;49.434;8.684;2023-04-03T15:28:49;2.38;;;1.35;;
24897;SDS011;12957;49.434;8.684;2023-04-03T15:31:15;6.05;;;1.50;;
24897;SDS011;12957;49.434;8.684;2023-04-03T15:33:40;2.13;;;1.42;;
24897;SDS011;12957;49.434;8.684;2023-04-03T15:36:06;1.50;;;1.40;;
24897;SDS011;12957;49.434;8.684;2023-04-03T15:38:31;3.25;;;1.42;;
24897;SDS011;12957;49.434;8.684;2023-04-03T15:40:57;1.73;;;1.38;;
24897;SDS011;12957;49.434;8.684;2023-04-03T15:43:22;1.25;;;1.10;;
24897;SDS011;12957;49.434;8.684;2023-04-03T15:45:48;1.98;;;1.05;;
24897;SDS011;12957;49.434;8.684;2023-04-03T15:48:14;3.80;;;1.42;;
24897;SDS011;12957;49.434;8.684;2023-04-03T15:50:40;1.33;;;1.30;;
24897;SDS011;12957;49.434;8.684;2023-04-03T15:53:06;1.70;;;1.40;;
24897;SDS011;12957;49.434;8.684;2023-04-03T15:55:32;3.30;;;1.52;;
24897;SDS011;12957;49.434;8.684;2023-04-03T15:57:59;1.35;;;1.25;;
24897;SDS011;12957;49.434;8.684;2023-04-03T16:00:26;2.15;;;1.40;;
24897;SDS011;12957;49.434;8.684;2023-04-03T16:02:53;1.27;;;1.17;;
24897;SDS011;12957;49.434;8.684;2023-04-03T16:05:39;1.30;;;1.27;;
24897;SDS011;12957;49.434;8.684;2023-04-03T16:08:06;2.05;;;1.30;;
24897;SDS011;12957;49.434;8.684;2023-04-03T16:10:32;2.13;;;1.60;;
24897;SDS011;12957;49.434;8.684;2023-04-03T16:12:58;4.88;;;1.40;;
24897;SDS011;12957;49.434;8.684;2023-04-03T16:15:23;2.25;;;1.30;;
24897;SDS011;12957;49.434;8.684;2023-04-03T16:17:49;2.22;;;1.40;;
24897;SDS011;12957;49.434;8.684;2023-04-03T16:20:15;1.20;;;1.10;;
24897;SDS011;12957;49.434;8.684;2023-04-03T16:22:41;1.77;;;1.17;;
24897;SDS011;12957;49.434;8.684;2023-04-03T16:25:07;2.17;;;1.30;;
24897;SDS011;12957;49.434;8.684;2023-04-03T16:27:33;2.00;;;1.47;;
24897;SDS011;12957;49.434;8.684;2023-04-03T16:29:59;1.23;;;1.20;;
24897;SDS011;12957;49.434;8.684;2023-04-03T16:32:25;1.40;;;1.30;;
24897;SDS011;12957;49.434;8.684;2023-04-03T16:34:52;1.30;;;1.20;;
24897;SDS011;12957;49.434;8.684;2023-04-03T16:37:18;1.55;;;1.23;;
24897;SDS011;12957;49.434;8.684;2023-04-03T16:39:44;1.33;;;1.23;;
24897;SDS011;12957;49.434;8.684;2023-04-03T16:42:10;3.35;;;1.40;;
24897;SDS011;12957;49.434;8.684;2023-04-03T16:44:35;3.70;;;1.25;;
24897;SDS011;12957;49.434;8.684;2023-04-03T16:47:01;2.75;;;1.60;;